Bei Facebook empfehlenBei Twitter postenGoogle plusPinterest

Das Wetter im Erzgebirge am 24.04.2016

Wetter und Klima am 24.04.2016 Holzhau im Erzgebirge (630m ü.NN)
Letzte gemessene Temperatur und Uhrzeit der Messung23:45:00 Uhr-0.90 °C
Temperatur (Maximum / Höchstwert) und Uhrzeit der Messung16:30:00 Uhr5.80 °C
Temperatur (Minimum / Tiefstwert) und Uhrzeit der Messung20:45:00-3.10 °C
Errechneter Absolutwert der Temperaturschwankungen zwischen Tmin und Tmax des Tages8.90 K
Errechnete Tagesmitteltemperatur0.61354 °C
Gesamt - Niederschlag des Tages (in flüssiger Form)3.63 Liter / m²
Luftdruck (Maximum / Höchstwert) und Zeitpunkt der Messung09:45:00 Uhr1006.10 hPa
Luftdruck (Minimum / Tiefstwert) und Zeitpunkt der Messung16:30:00 Uhr1003.90 hPa
Errechneter Absolutwert der Luftdruckschwankungen des Tages2.20 hPa
Höchste gemessene Windgeschwindigkeit und Uhrzeit der Messung23:45:00 Uhr0.00 km/h
Errechnete Windhäufigkeit in Relation zu den Messwerten des Tages0.00000 %
Niedrigste Windkühle (Windchill) und Zeitpunkt der Messung20:45:00 Uhr-3.10 °C
Taupunkt (Maximum / Höchstwert) und Uhrzeit der Messung10:45:00 Uhr2.50 °C
Taupunkt (Minimum / Tiefstwert) und Uhrzeit der Messung20:45:00-5.50 °C
Anzahl der automatisch eingelesenen Messwerte 96

Detaillierte Wetter- und Klima- Messwerte für den 24.04.2016 in Holzhau im Erzgebirge (630m ü.NN)
ZeitTemperaturLuftdruckRel. LuftfeuchteWindWindrichtungWindchillTaupunktNiederschlag l/m²
23:45:00-0.90 °C1004.80 hPa89.00 %-2.70 °C3.63
23:30:00-1.00 °C1004.70 hPa89.00 %-2.80 °C3.63
23:15:00-1.10 °C1004.80 hPa89.00 %-2.90 °C3.63
23:00:00-1.20 °C1004.60 hPa89.00 %-3.00 °C3.63
22:45:00-1.50 °C1004.60 hPa88.00 %-3.40 °C3.63
22:30:00-1.40 °C1004.50 hPa88.00 %-3.30 °C3.63
22:15:00-1.20 °C1004.90 hPa88.00 %-3.10 °C3.63
22:00:00-1.40 °C1004.90 hPa88.00 %-3.30 °C3.63
21:45:00-1.70 °C1004.90 hPa87.00 %-3.80 °C3.63
21:30:00-2.20 °C1004.90 hPa87.00 %-4.30 °C3.63
21:15:00-2.60 °C1005.10 hPa86.00 %-4.90 °C3.63
21:00:00-2.90 °C1004.90 hPa86.00 %-5.10 °C3.63
20:45:00-3.10 °C1004.90 hPa85.00 %-5.50 °C3.63
20:30:00-2.90 °C1004.80 hPa85.00 %-5.30 °C3.63
20:15:00-2.60 °C1004.80 hPa84.00 %-5.20 °C3.63
20:00:00-2.20 °C1004.70 hPa84.00 %-4.80 °C3.63
19:45:00-1.70 °C1004.60 hPa84.00 %-4.30 °C3.63
19:30:00-1.20 °C1004.50 hPa83.00 %-4.00 °C3.63
19:15:00-0.60 °C1004.50 hPa83.00 %-3.40 °C3.63
19:00:000.20 °C1004.40 hPa83.00 %-2.30 °C3.63
18:45:000.80 °C1004.40 hPa83.00 %-1.80 °C3.63
18:30:001.00 °C1004.40 hPa82.00 %-1.70 °C3.63
18:15:000.90 °C1004.40 hPa82.00 %-1.80 °C3.63
18:00:001.30 °C1004.30 hPa81.00 %-1.60 °C3.63
17:45:001.60 °C1004.50 hPa80.00 %-1.50 °C3.63
17:30:001.40 °C1004.60 hPa78.00 %-2.00 °C3.63
17:15:002.30 °C1004.50 hPa76.00 %-1.50 °C3.63
17:00:003.20 °C1004.30 hPa74.00 %-1.00 °C3.63
16:45:004.60 °C1004.20 hPa71.00 %-0.20 °C3.63
16:30:005.80 °C1003.90 hPa72.00 %1.20 °C3.63
16:15:005.00 °C1004.20 hPa73.00 %0.60 °C3.63
16:00:005.00 °C1004.20 hPa75.00 %0.90 °C3.63
15:45:004.90 °C1004.20 hPa80.00 %1.70 °C3.11
15:30:003.60 °C1004.50 hPa80.00 %0.50 °C3.11
15:15:003.80 °C1004.70 hPa82.00 %1.00 °C3.11
15:00:002.50 °C1004.70 hPa82.00 %-0.30 °C2.59
14:45:002.50 °C1004.80 hPa81.00 %-0.40 °C2.07
14:30:002.90 °C1004.80 hPa82.00 %0.10 °C2.07
14:15:001.70 °C1005.10 hPa82.00 %-1.00 °C2.07
14:00:001.50 °C1005.20 hPa79.00 %-1.70 °C2.07
13:45:004.10 °C1004.60 hPa80.00 %1.00 °C2.07
13:30:002.60 °C1005.00 hPa77.00 %-1.00 °C2.07
13:15:004.10 °C1005.30 hPa75.00 %0.10 °C2.07
13:00:004.90 °C1005.10 hPa77.00 %1.20 °C2.07
12:45:004.10 °C1005.20 hPa72.00 %-0.50 °C2.07
12:30:005.50 °C1005.10 hPa71.00 %0.70 °C2.07
12:15:005.60 °C1004.90 hPa73.00 %1.20 °C2.07
12:00:005.20 °C1005.00 hPa75.00 %1.10 °C2.07
11:45:004.80 °C1005.20 hPa75.00 %0.80 °C2.07
11:30:005.00 °C1005.50 hPa80.00 %1.80 °C2.07
11:15:004.40 °C1005.60 hPa83.00 %1.80 °C2.07
11:00:003.60 °C1005.60 hPa83.00 %1.00 °C2.07
10:45:004.30 °C1005.90 hPa88.00 %2.50 °C2.07
10:30:003.40 °C1005.80 hPa89.00 %1.80 °C1.55
10:15:002.90 °C1005.90 hPa89.00 %1.30 °C1.55
10:00:001.50 °C1005.90 hPa90.00 %0.00 °C1.04
09:45:001.60 °C1006.10 hPa90.00 %0.10 °C1.04
09:30:001.90 °C1006.00 hPa92.00 %0.70 °C0.52
09:15:000.70 °C1006.00 hPa91.00 %-0.60 °C0.52
09:00:000.10 °C1006.10 hPa91.00 %-1.20 °C0.52
08:45:000.40 °C1005.90 hPa92.00 %-0.70 °C0.52
08:30:000.40 °C1005.90 hPa92.00 %-0.70 °C0.52
08:15:000.30 °C1005.80 hPa92.00 %-0.80 °C0.52
08:00:000.00 °C1005.80 hPa92.00 %-1.30 °C0.52
07:45:00-0.50 °C1006.00 hPa93.00 %-1.60 °C0.52
07:30:00-0.70 °C1005.90 hPa93.00 %-1.80 °C0.52
07:15:00-0.90 °C1005.80 hPa93.00 %-2.00 °C0.52
07:00:00-1.10 °C1005.80 hPa93.00 %-2.20 °C0.52
06:45:00-1.20 °C1005.90 hPa93.00 %-2.30 °C0.52
06:30:00-1.30 °C1005.90 hPa93.00 %-2.40 °C0.52
06:15:00-1.40 °C1005.80 hPa93.00 %-2.50 °C0.52
06:00:00-1.50 °C1005.60 hPa93.00 %-2.60 °C0.52
05:45:00-1.50 °C1005.50 hPa93.00 %-2.60 °C0.52
05:30:00-1.50 °C1005.40 hPa93.00 %-2.60 °C0.52
05:15:00-1.50 °C1005.40 hPa93.00 %-2.60 °C0.52
05:00:00-1.50 °C1005.40 hPa93.00 %-2.60 °C0.52
04:45:00-1.50 °C1005.30 hPa93.00 %-2.60 °C0.52
04:30:00-1.40 °C1005.20 hPa93.00 %-2.50 °C0.52
04:15:00-1.40 °C1005.20 hPa93.00 %-2.50 °C0.52
04:00:00-1.30 °C1005.20 hPa93.00 %-2.40 °C0.52
03:45:00-1.20 °C1005.10 hPa93.00 %-2.30 °C0.52
03:30:00-1.20 °C1005.00 hPa93.00 %-2.30 °C0.52
03:15:00-1.10 °C1005.00 hPa93.00 %-2.20 °C0.52
03:00:00-1.00 °C1004.80 hPa93.00 %-2.10 °C0.52
02:45:00-1.10 °C1004.80 hPa93.00 %-2.20 °C0.52
02:30:00-1.10 °C1004.70 hPa92.00 %-2.40 °C0.52
02:15:00-1.00 °C1004.70 hPa92.00 %-2.30 °C0.52
02:00:00-1.10 °C1004.50 hPa92.00 %-2.40 °C0.52
01:45:00-1.10 °C1004.30 hPa92.00 %-2.40 °C0.52
01:30:00-1.10 °C1004.20 hPa92.00 %-2.40 °C 
01:15:00-0.90 °C1004.30 hPa92.00 %-2.20 °C 
01:00:00-0.90 °C1004.40 hPa92.00 %-2.20 °C 
00:45:00-0.80 °C1004.50 hPa92.00 %-2.10 °C 
00:30:00-0.70 °C1004.30 hPa92.00 %-2.00 °C 
00:15:00-0.70 °C1004.30 hPa92.00 %-2.00 °C 
00:00:00-0.40 °C1004.30 hPa92.00 %-1.70 °C 

Permanenter Link zu dieser Seite: Wetter im Erzgebirge am 24.04.2016
Performance-Info: Die Erstellung der Seite / Statistik(en) / Tabelle(n) erforderte 5 Datenbankserver-Abfrage(n) und dauerte 101 Millisekunden. (Dieser Messwert ist von der Gesamt-Auslastung des Servers abhängig.)
Erzgebirge - Wetter | Erzgebirge - Wetter (Mobilgeräte) | Komplette Klimadatenbank